createdAt,value
2023-03-01T00:01:59.295Z,38.22
2023-03-01T00:04:25.628Z,38.20
2023-03-01T00:06:52.001Z,38.26
2023-03-01T00:09:18.367Z,38.24
2023-03-01T00:11:44.785Z,38.27
2023-03-01T00:14:11.110Z,38.27
2023-03-01T00:16:37.581Z,38.29
2023-03-01T00:19:03.855Z,38.32
2023-03-01T00:21:30.259Z,38.31
2023-03-01T00:23:57.815Z,38.37
2023-03-01T00:26:22.990Z,38.30
2023-03-01T00:28:49.338Z,38.36
2023-03-01T00:31:15.732Z,38.37
2023-03-01T00:33:42.075Z,38.39
2023-03-01T00:36:08.469Z,38.43
2023-03-01T00:38:34.867Z,38.43
2023-03-01T00:41:01.264Z,38.43
2023-03-01T00:43:27.606Z,38.46
2023-03-01T00:45:54.096Z,38.47
2023-03-01T00:48:21.637Z,38.49
2023-03-01T00:50:46.814Z,38.47
2023-03-01T00:53:13.191Z,38.50
2023-03-01T00:55:39.595Z,38.50
2023-03-01T00:58:05.954Z,38.56
2023-03-01T01:00:32.324Z,38.59
2023-03-01T01:03:01.124Z,38.57
2023-03-01T01:05:27.512Z,38.59
2023-03-01T01:07:53.865Z,38.61
2023-03-01T01:10:20.247Z,38.57
2023-03-01T01:12:46.589Z,38.60
2023-03-01T01:15:13.018Z,38.66
2023-03-01T01:17:39.360Z,38.63
2023-03-01T01:20:05.756Z,38.66
2023-03-01T01:22:32.098Z,38.66
2023-03-01T01:24:58.505Z,38.68
2023-03-01T01:27:24.837Z,38.68
2023-03-01T01:29:51.212Z,38.72
2023-03-01T01:32:17.627Z,38.74
2023-03-01T01:34:43.940Z,38.75
2023-03-01T01:37:10.318Z,38.75
2023-03-01T01:39:36.706Z,38.74
2023-03-01T01:42:04.283Z,38.76
2023-03-01T01:44:29.441Z,38.78
2023-03-01T01:46:55.791Z,38.80
2023-03-01T01:49:22.264Z,38.83
2023-03-01T01:51:48.622Z,38.81
2023-03-01T01:54:15.011Z,38.83
2023-03-01T01:56:41.392Z,38.84
2023-03-01T01:59:07.774Z,38.88
2023-03-01T02:01:34.112Z,38.89
2023-03-01T02:04:00.502Z,38.90
2023-03-01T02:06:26.839Z,38.92
2023-03-01T02:08:53.228Z,38.96
2023-03-01T02:11:19.568Z,38.95
2023-03-01T02:13:45.972Z,38.98
2023-03-01T02:16:12.313Z,38.98
2023-03-01T02:18:38.688Z,38.98
2023-03-01T02:21:05.031Z,39.02
2023-03-01T02:23:31.422Z,38.98
2023-03-01T02:25:57.815Z,39.04
2023-03-01T02:28:24.176Z,39.03
2023-03-01T02:30:50.526Z,39.04
2023-03-01T02:33:16.938Z,39.09
2023-03-01T02:35:43.294Z,39.08
2023-03-01T02:38:09.667Z,39.08
2023-03-01T02:40:35.995Z,39.10
2023-03-01T02:43:02.395Z,39.09
2023-03-01T02:45:28.735Z,39.11
2023-03-01T02:47:55.121Z,39.17
2023-03-01T02:50:21.448Z,39.18
2023-03-01T02:52:47.840Z,39.20
2023-03-01T02:55:14.260Z,39.22
2023-03-01T02:57:40.645Z,39.20
2023-03-01T03:00:06.989Z,39.23
2023-03-01T03:02:33.404Z,39.23
2023-03-01T03:04:59.815Z,39.25
2023-03-01T03:07:26.195Z,39.26
2023-03-01T03:09:52.531Z,39.13
2023-03-01T03:12:18.944Z,39.09
2023-03-01T03:14:45.290Z,39.01
2023-03-01T03:17:11.669Z,38.91
2023-03-01T03:19:38.017Z,38.80
2023-03-01T03:22:04.415Z,38.72
2023-03-01T03:24:30.742Z,38.75
2023-03-01T03:26:57.126Z,38.61
2023-03-01T03:29:23.473Z,38.52
2023-03-01T03:31:50.047Z,38.40
2023-03-01T03:34:16.193Z,38.37
2023-03-01T03:36:42.574Z,38.20
2023-03-01T03:39:08.934Z,38.16
2023-03-01T03:41:35.330Z,38.10
2023-03-01T03:44:01.718Z,38.04
2023-03-01T03:46:28.108Z,38.03
2023-03-01T03:48:54.479Z,37.95
2023-03-01T03:51:20.854Z,37.91
2023-03-01T03:53:47.226Z,37.84
2023-03-01T03:56:13.597Z,37.72
2023-03-01T03:58:39.955Z,37.73
2023-03-01T04:01:06.344Z,37.72
2023-03-01T04:03:32.675Z,37.63
2023-03-01T04:05:59.057Z,37.59
2023-03-01T04:08:25.402Z,37.48
2023-03-01T04:10:51.778Z,37.47
2023-03-01T04:13:18.144Z,37.44
2023-03-01T04:15:44.525Z,37.36
2023-03-01T04:18:10.871Z,37.33
2023-03-01T04:20:39.988Z,37.30
2023-03-01T04:23:06.323Z,37.27
2023-03-01T04:25:32.753Z,37.19
2023-03-01T04:27:59.098Z,37.16
2023-03-01T04:30:25.476Z,37.15
2023-03-01T04:32:51.819Z,37.08
2023-03-01T04:35:18.163Z,37.02
2023-03-01T04:37:44.554Z,36.97
2023-03-01T04:40:10.893Z,36.90
2023-03-01T04:42:37.299Z,36.88
2023-03-01T04:45:03.640Z,36.82
2023-03-01T04:47:30.027Z,36.79
2023-03-01T04:49:56.365Z,36.69
2023-03-01T04:52:22.765Z,36.63
2023-03-01T04:54:49.107Z,36.61
2023-03-01T04:57:15.486Z,36.52
2023-03-01T04:59:41.825Z,36.47
2023-03-01T05:02:08.224Z,36.47
2023-03-01T05:04:34.648Z,36.39
2023-03-01T05:07:00.954Z,36.33
2023-03-01T05:09:27.312Z,36.32
2023-03-01T05:11:53.701Z,36.27
2023-03-01T05:14:20.051Z,36.32
2023-03-01T05:16:46.441Z,36.18
2023-03-01T05:19:12.882Z,36.17
2023-03-01T05:21:39.170Z,36.08
2023-03-01T05:24:05.505Z,36.17
2023-03-01T05:26:31.892Z,36.09
2023-03-01T05:28:58.225Z,38.50
2023-03-01T05:31:24.654Z,36.92
2023-03-01T05:33:50.952Z,36.56
2023-03-01T05:36:17.435Z,36.56
2023-03-01T05:38:43.785Z,36.49
2023-03-01T05:41:10.191Z,36.36
2023-03-01T05:43:36.537Z,36.39
2023-03-01T05:46:02.995Z,36.38
2023-03-01T05:48:29.335Z,36.30
2023-03-01T05:50:55.733Z,36.34
2023-03-01T05:53:22.080Z,36.32
2023-03-01T05:55:48.472Z,36.27
2023-03-01T05:58:17.211Z,36.22
2023-03-01T06:00:41.266Z,36.22
2023-03-01T06:03:07.619Z,36.13
2023-03-01T06:05:34.096Z,36.07
2023-03-01T06:08:00.359Z,36.00
2023-03-01T06:10:26.784Z,35.90
2023-03-01T06:12:53.204Z,35.88
2023-03-01T06:15:19.606Z,35.87
2023-03-01T06:17:45.950Z,35.81
2023-03-01T06:20:12.323Z,35.79
2023-03-01T06:22:38.702Z,35.79
2023-03-01T06:25:05.084Z,35.73
2023-03-01T06:27:31.444Z,35.66
2023-03-01T06:29:57.836Z,35.72
2023-03-01T06:32:24.195Z,35.66
2023-03-01T06:34:50.555Z,35.68
2023-03-01T06:37:16.904Z,35.72
2023-03-01T06:39:43.269Z,35.69
2023-03-01T06:42:09.658Z,35.68
2023-03-01T06:44:36.049Z,35.62
2023-03-01T06:47:02.385Z,35.57
2023-03-01T06:49:28.784Z,35.64
2023-03-01T06:51:55.138Z,35.62
2023-03-01T06:54:22.730Z,35.62
2023-03-01T06:56:47.872Z,35.69
2023-03-01T06:59:14.259Z,35.76
2023-03-01T07:01:40.630Z,35.72
2023-03-01T07:04:07.026Z,35.62
2023-03-01T07:06:33.487Z,35.57
2023-03-01T07:08:59.760Z,35.54
2023-03-01T07:11:26.114Z,35.61
2023-03-01T07:13:52.502Z,35.54
2023-03-01T07:16:18.895Z,35.51
2023-03-01T07:18:45.241Z,35.54
2023-03-01T07:21:11.581Z,35.50
2023-03-01T07:23:37.982Z,35.57
2023-03-01T07:26:04.345Z,35.53
2023-03-01T07:28:30.705Z,35.52
2023-03-01T07:30:57.090Z,35.56
2023-03-01T07:33:23.499Z,35.62
2023-03-01T07:35:49.877Z,35.59
2023-03-01T07:38:16.215Z,35.62
2023-03-01T07:40:42.549Z,35.60
2023-03-01T07:43:08.941Z,35.77
2023-03-01T07:45:35.288Z,35.72
2023-03-01T07:48:01.690Z,35.70
2023-03-01T07:50:28.201Z,35.62
2023-03-01T07:52:54.533Z,35.57
2023-03-01T07:55:20.906Z,35.65
2023-03-01T07:57:47.306Z,35.71
2023-03-01T08:00:13.689Z,35.79
2023-03-01T08:02:40.163Z,35.83
2023-03-01T08:05:06.535Z,35.77
2023-03-01T08:07:32.932Z,36.01
2023-03-01T08:09:59.327Z,36.12
2023-03-01T08:12:25.718Z,36.22
2023-03-01T08:14:52.113Z,36.36
2023-03-01T08:17:18.517Z,36.27
2023-03-01T08:19:44.873Z,36.24
2023-03-01T08:22:11.294Z,36.20
2023-03-01T08:24:37.662Z,36.19
2023-03-01T08:27:04.094Z,36.17
2023-03-01T08:29:30.437Z,36.06
2023-03-01T08:31:56.943Z,36.08
2023-03-01T08:34:23.258Z,36.04
2023-03-01T08:36:49.666Z,35.91
2023-03-01T08:39:16.173Z,35.87
2023-03-01T08:41:42.455Z,36.02
2023-03-01T08:44:08.823Z,36.07
2023-03-01T08:46:35.318Z,35.97
2023-03-01T08:49:01.598Z,35.92
2023-03-01T08:51:28.014Z,35.86
2023-03-01T08:53:54.392Z,35.81
2023-03-01T08:56:20.892Z,35.71
2023-03-01T08:58:47.253Z,35.76
2023-03-01T09:01:13.665Z,35.74
2023-03-01T09:03:40.040Z,35.70
2023-03-01T09:06:06.452Z,35.70
2023-03-01T09:08:32.853Z,35.74
2023-03-01T09:10:59.263Z,35.85
2023-03-01T09:13:25.637Z,35.86
2023-03-01T09:15:52.043Z,35.75
2023-03-01T09:18:18.408Z,35.80
2023-03-01T09:20:44.811Z,35.78
2023-03-01T09:23:11.185Z,35.71
2023-03-01T09:25:38.561Z,35.75
2023-03-01T09:28:03.955Z,35.71
2023-03-01T09:30:30.411Z,35.76
2023-03-01T09:32:56.745Z,35.80
2023-03-01T09:35:23.174Z,35.71
2023-03-01T09:37:49.539Z,35.65
2023-03-01T09:40:16.006Z,35.70
2023-03-01T09:42:42.391Z,35.63
2023-03-01T09:45:08.875Z,35.61
2023-03-01T09:47:35.241Z,35.53
2023-03-01T09:50:01.664Z,35.48
2023-03-01T09:52:28.050Z,35.45
2023-03-01T09:54:54.452Z,35.43
2023-03-01T09:57:20.868Z,35.38
2023-03-01T09:59:47.284Z,35.37
2023-03-01T10:02:13.664Z,35.31
2023-03-01T10:04:40.123Z,35.33
2023-03-01T10:07:06.479Z,35.39
2023-03-01T10:09:32.910Z,35.25
2023-03-01T10:11:59.280Z,35.14
2023-03-01T10:14:25.700Z,35.05
2023-03-01T10:16:52.114Z,35.01
2023-03-01T10:19:18.510Z,35.01
2023-03-01T10:21:44.907Z,34.93
2023-03-01T10:24:11.319Z,35.02
2023-03-01T10:26:37.676Z,35.08
2023-03-01T10:29:04.106Z,35.18
2023-03-01T10:31:31.049Z,35.15
2023-03-01T10:33:56.879Z,35.13
2023-03-01T10:36:23.243Z,35.11
2023-03-01T10:38:49.648Z,35.18
2023-03-01T10:41:16.046Z,35.20
2023-03-01T10:43:42.455Z,35.17
2023-03-01T10:46:08.899Z,35.18
2023-03-01T10:48:35.273Z,35.10
2023-03-01T10:51:01.627Z,34.95
2023-03-01T10:53:28.066Z,35.03
2023-03-01T10:55:54.423Z,35.00
2023-03-01T10:58:20.840Z,35.08
2023-03-01T11:00:47.195Z,35.07
2023-03-01T11:03:13.626Z,35.08
2023-03-01T11:05:39.980Z,35.13
2023-03-01T11:08:06.389Z,35.23
2023-03-01T11:10:32.781Z,35.28
2023-03-01T11:12:59.151Z,35.25
2023-03-01T11:15:25.523Z,35.34
2023-03-01T11:17:57.000Z,35.34
2023-03-01T11:20:18.306Z,35.36
2023-03-01T11:22:44.724Z,35.35
2023-03-01T11:25:11.149Z,35.36
2023-03-01T11:27:39.763Z,35.27
2023-03-01T11:30:03.909Z,35.27
2023-03-01T11:32:30.557Z,35.21
2023-03-01T11:34:56.820Z,35.10
2023-03-01T11:37:23.293Z,35.16
2023-03-01T11:39:49.664Z,35.15
2023-03-01T11:42:19.360Z,34.96
2023-03-01T11:44:42.442Z,34.94
2023-03-01T11:47:08.942Z,34.94
2023-03-01T11:49:35.281Z,35.14
2023-03-01T11:52:01.673Z,35.09
2023-03-01T11:54:28.031Z,35.26
2023-03-01T11:56:54.463Z,35.14
2023-03-01T11:59:20.806Z,35.14
2023-03-01T12:01:47.325Z,35.11
2023-03-01T12:04:13.612Z,35.08
2023-03-01T12:06:39.983Z,35.02
2023-03-01T12:09:06.357Z,35.01
2023-03-01T12:11:32.770Z,34.94
2023-03-01T12:13:59.136Z,34.88
2023-03-01T12:16:38.383Z,34.88
2023-03-01T12:18:52.045Z,34.79
2023-03-01T12:21:18.506Z,34.74
2023-03-01T12:23:44.873Z,34.72
2023-03-01T12:26:13.251Z,34.69
2023-03-01T12:28:37.641Z,34.45
2023-03-01T12:31:04.049Z,34.66
2023-03-01T12:33:30.430Z,34.66
2023-03-01T12:35:56.913Z,34.66
2023-03-01T12:38:23.230Z,34.85
2023-03-01T12:40:49.643Z,34.85
2023-03-01T12:43:16.001Z,34.41
2023-03-01T12:45:42.489Z,34.41
2023-03-01T12:48:08.781Z,34.75
2023-03-01T12:50:35.208Z,34.75
2023-03-01T12:53:01.553Z,34.88
2023-03-01T12:55:27.963Z,34.86
2023-03-01T12:57:54.324Z,34.71
2023-03-01T13:00:20.791Z,35.09
2023-03-01T13:02:47.157Z,35.09
2023-03-01T13:05:13.563Z,34.84
2023-03-01T13:07:39.954Z,34.59
2023-03-01T13:10:06.421Z,34.59
2023-03-01T13:12:32.774Z,34.69
2023-03-01T13:14:59.224Z,34.67
2023-03-01T13:17:25.578Z,35.17
2023-03-01T13:19:51.981Z,35.17
2023-03-01T13:22:18.343Z,34.62
2023-03-01T13:24:44.757Z,34.59
2023-03-01T13:27:11.124Z,34.77
2023-03-01T13:29:37.526Z,34.77
2023-03-01T13:32:04.066Z,34.77
2023-03-01T13:34:31.877Z,34.49
2023-03-01T13:36:56.671Z,34.46
2023-03-01T13:39:23.074Z,34.47
2023-03-01T13:41:49.449Z,34.48
2023-03-01T13:44:15.861Z,34.57
2023-03-01T13:46:42.248Z,34.62
2023-03-01T13:49:08.617Z,34.65
2023-03-01T13:51:34.961Z,34.59
2023-03-01T13:54:02.777Z,34.63
2023-03-01T13:56:27.774Z,34.66
2023-03-01T13:58:54.238Z,34.63
2023-03-01T14:01:20.715Z,34.78
2023-03-01T14:03:47.072Z,34.77
2023-03-01T14:06:15.870Z,34.80
2023-03-01T14:08:39.764Z,34.76
2023-03-01T14:11:06.096Z,34.79
2023-03-01T14:13:32.525Z,34.73
2023-03-01T14:15:58.871Z,34.76
2023-03-01T14:18:25.235Z,34.77
2023-03-01T14:20:51.581Z,34.43
2023-03-01T14:23:17.980Z,34.71
2023-03-01T14:25:44.355Z,34.71
2023-03-01T14:28:11.930Z,35.17
2023-03-01T14:30:37.138Z,34.81
2023-03-01T14:33:03.542Z,34.87
2023-03-01T14:35:29.916Z,35.11
2023-03-01T14:37:56.296Z,35.11
2023-03-01T14:40:22.612Z,34.71
2023-03-01T14:42:49.084Z,34.79
2023-03-01T14:45:15.440Z,34.85
2023-03-01T14:47:43.494Z,34.85
2023-03-01T14:50:08.267Z,34.80
2023-03-01T14:52:34.654Z,34.80
2023-03-01T14:55:01.004Z,34.83
2023-03-01T14:57:27.424Z,34.82
2023-03-01T14:59:53.888Z,34.95
2023-03-01T15:02:20.257Z,34.95
2023-03-01T15:04:46.708Z,35.08
2023-03-01T15:07:12.966Z,35.04
2023-03-01T15:09:39.403Z,34.94
2023-03-01T15:12:05.805Z,35.02
2023-03-01T15:14:32.245Z,34.95
2023-03-01T15:16:58.606Z,35.48
2023-03-01T15:19:24.966Z,35.48
2023-03-01T15:21:51.354Z,35.07
2023-03-01T15:24:17.744Z,35.07
2023-03-01T15:26:44.087Z,34.96
2023-03-01T15:29:11.708Z,34.89
2023-03-01T15:31:36.931Z,34.84
2023-03-01T15:34:03.278Z,34.88
2023-03-01T15:36:29.844Z,34.60
2023-03-01T15:38:56.113Z,34.60
2023-03-01T15:41:22.534Z,34.89
2023-03-01T15:43:48.924Z,34.89
2023-03-01T15:46:15.274Z,34.78
2023-03-01T15:48:41.642Z,34.75
2023-03-01T15:51:07.998Z,34.75
2023-03-01T15:53:36.391Z,34.77
2023-03-01T15:56:00.762Z,34.82
2023-03-01T15:58:27.218Z,34.81
2023-03-01T16:01:00.832Z,34.88
2023-03-01T16:03:19.941Z,34.63
2023-03-01T16:05:46.298Z,34.97
2023-03-01T16:08:12.713Z,34.97
2023-03-01T16:10:39.061Z,34.92
2023-03-01T16:13:05.493Z,34.92
2023-03-01T16:15:33.106Z,34.74
2023-03-01T16:17:58.183Z,34.60
2023-03-01T16:20:29.962Z,34.74
2023-03-01T16:22:50.916Z,34.92
2023-03-01T16:25:17.271Z,34.92
2023-03-01T16:27:43.681Z,34.76
2023-03-01T16:30:10.054Z,34.72
2023-03-01T16:32:36.476Z,34.72
2023-03-01T16:35:02.815Z,34.77
2023-03-01T16:37:29.204Z,34.77
2023-03-01T16:39:55.533Z,34.73
2023-03-01T16:42:21.916Z,34.51
2023-03-01T16:44:48.262Z,34.59
2023-03-01T16:47:14.663Z,34.71
2023-03-01T16:49:41.008Z,34.69
2023-03-01T16:52:07.397Z,34.58
2023-03-01T16:54:33.726Z,34.40
2023-03-01T16:57:00.120Z,34.40
2023-03-01T16:59:26.464Z,34.10
2023-03-01T17:01:52.859Z,34.44
2023-03-01T17:04:20.218Z,34.33
2023-03-01T17:06:45.587Z,34.33
2023-03-01T17:09:11.925Z,34.53
2023-03-01T17:11:38.299Z,34.35
2023-03-01T17:14:04.641Z,34.32
2023-03-01T17:16:31.130Z,34.14
2023-03-01T17:18:57.443Z,34.36
2023-03-01T17:21:26.188Z,34.44
2023-03-01T17:23:52.567Z,34.39
2023-03-01T17:26:18.998Z,34.41
2023-03-01T17:28:45.326Z,34.67
2023-03-01T17:31:11.705Z,34.67
2023-03-01T17:33:38.054Z,34.50
2023-03-01T17:36:04.516Z,34.50
2023-03-01T17:38:30.765Z,34.38
2023-03-01T17:40:57.162Z,34.40
2023-03-01T17:43:23.500Z,34.39
2023-03-01T17:45:49.930Z,34.34
2023-03-01T17:48:16.253Z,34.25
2023-03-01T17:50:42.643Z,34.22
2023-03-01T17:53:08.982Z,34.24
2023-03-01T17:55:35.414Z,34.24
2023-03-01T17:58:01.752Z,34.29
2023-03-01T18:00:28.130Z,34.17
2023-03-01T18:02:54.538Z,34.22
2023-03-01T18:05:20.934Z,34.18
2023-03-01T18:07:47.283Z,34.22
2023-03-01T18:10:13.692Z,34.10
2023-03-01T18:12:40.066Z,34.14
2023-03-01T18:15:06.440Z,34.33
2023-03-01T18:17:32.778Z,34.33
2023-03-01T18:19:59.179Z,34.28
2023-03-01T18:22:25.529Z,33.91
2023-03-01T18:24:51.916Z,33.91
2023-03-01T18:27:18.285Z,34.30
2023-03-01T18:29:44.657Z,34.20
2023-03-01T18:32:11.040Z,34.13
2023-03-01T18:34:37.410Z,34.20
2023-03-01T18:37:09.430Z,33.89
2023-03-01T18:39:30.140Z,33.89
2023-03-01T18:41:56.488Z,34.19
2023-03-01T18:44:22.874Z,34.21
2023-03-01T18:46:49.242Z,34.18
2023-03-01T18:49:15.614Z,34.18
2023-03-01T18:51:42.045Z,34.06
2023-03-01T18:54:08.334Z,34.06
2023-03-01T18:56:34.892Z,34.22
2023-03-01T18:59:01.106Z,34.15
2023-03-01T19:01:27.466Z,34.19
2023-03-01T19:03:53.833Z,34.10
2023-03-01T19:06:20.174Z,34.23
2023-03-01T19:08:46.563Z,34.24
2023-03-01T19:11:12.917Z,34.35
2023-03-01T19:13:39.296Z,34.42
2023-03-01T19:16:05.742Z,34.48
2023-03-01T19:18:32.083Z,34.62
2023-03-01T19:21:03.374Z,34.73
2023-03-01T19:23:24.821Z,34.80
2023-03-01T19:25:51.156Z,34.88
2023-03-01T19:28:17.567Z,35.04
2023-03-01T19:30:43.957Z,35.57
2023-03-01T19:33:10.335Z,35.57
2023-03-01T19:35:36.697Z,35.29
2023-03-01T19:38:03.072Z,35.28
2023-03-01T19:40:29.413Z,34.97
2023-03-01T19:42:55.803Z,34.97
2023-03-01T19:45:31.816Z,35.47
2023-03-01T19:47:48.538Z,35.51
2023-03-01T19:50:14.874Z,35.64
2023-03-01T19:52:41.262Z,35.68
2023-03-01T19:55:09.983Z,35.75
2023-03-01T19:57:33.967Z,35.74
2023-03-01T20:00:00.312Z,35.50
2023-03-01T20:02:28.360Z,35.85
2023-03-01T20:04:53.049Z,35.88
2023-03-01T20:07:19.419Z,35.95
2023-03-01T20:09:48.224Z,36.01
2023-03-01T20:12:14.599Z,36.06
2023-03-01T20:14:40.941Z,36.08
2023-03-01T20:17:07.322Z,35.95
2023-03-01T20:19:33.723Z,35.95
2023-03-01T20:22:00.108Z,36.17
2023-03-01T20:24:27.515Z,35.88
2023-03-01T20:26:52.784Z,35.88
2023-03-01T20:29:19.155Z,36.30
2023-03-01T20:31:45.610Z,36.38
2023-03-01T20:34:11.901Z,36.39
2023-03-01T20:36:38.669Z,36.42
2023-03-01T20:39:04.704Z,36.47
2023-03-01T20:41:31.084Z,36.56
2023-03-01T20:43:57.430Z,36.19
2023-03-01T20:46:23.915Z,36.19
2023-03-01T20:48:50.231Z,36.75
2023-03-01T20:51:16.604Z,36.75
2023-03-01T20:53:42.940Z,36.90
2023-03-01T20:56:09.339Z,36.71
2023-03-01T20:58:35.721Z,36.77
2023-03-01T21:01:02.162Z,36.77
2023-03-01T21:03:28.492Z,36.82
2023-03-01T21:05:54.866Z,36.83
2023-03-01T21:08:21.203Z,36.87
2023-03-01T21:10:47.588Z,36.84
2023-03-01T21:13:13.931Z,36.93
2023-03-01T21:15:40.322Z,36.90
2023-03-01T21:18:06.655Z,36.90
2023-03-01T21:20:33.102Z,36.88
2023-03-01T21:22:59.445Z,36.97
2023-03-01T21:25:25.834Z,37.00
2023-03-01T21:27:52.175Z,37.00
2023-03-01T21:30:18.579Z,36.96
2023-03-01T21:32:45.038Z,37.29
2023-03-01T21:35:11.341Z,37.29
2023-03-01T21:37:37.679Z,36.96
2023-03-01T21:40:04.064Z,36.99
2023-03-01T21:42:30.408Z,37.00
2023-03-01T21:44:56.875Z,36.98
2023-03-01T21:47:23.218Z,37.00
2023-03-01T21:49:49.601Z,37.04
2023-03-01T21:52:16.002Z,37.02
2023-03-01T21:54:42.417Z,36.97
2023-03-01T21:57:08.760Z,36.98
2023-03-01T21:59:35.148Z,37.04
2023-03-01T22:02:01.503Z,37.03
2023-03-01T22:04:27.882Z,37.01
2023-03-01T22:06:54.269Z,37.09
2023-03-01T22:09:20.624Z,37.10
2023-03-01T22:11:46.970Z,37.07
2023-03-01T22:14:13.970Z,37.10
2023-03-01T22:16:39.733Z,37.07
2023-03-01T22:19:06.165Z,37.15
2023-03-01T22:21:32.518Z,37.17
2023-03-01T22:23:58.906Z,37.18
2023-03-01T22:26:25.268Z,37.21
2023-03-01T22:28:51.685Z,37.22
2023-03-01T22:31:18.039Z,37.21
2023-03-01T22:33:44.447Z,37.24
2023-03-01T22:36:10.786Z,37.24
2023-03-01T22:38:37.172Z,37.30
2023-03-01T22:41:03.518Z,37.29
2023-03-01T22:43:29.898Z,37.25
2023-03-01T22:45:56.338Z,37.28
2023-03-01T22:48:22.644Z,37.33
2023-03-01T22:50:48.989Z,37.37
2023-03-01T22:53:15.384Z,37.42
2023-03-01T22:55:41.724Z,37.39
2023-03-01T22:58:08.125Z,37.36
2023-03-01T23:00:34.480Z,37.44
2023-03-01T23:03:00.928Z,37.51
2023-03-01T23:05:27.203Z,37.50
2023-03-01T23:07:53.592Z,37.53
2023-03-01T23:10:19.933Z,37.53
2023-03-01T23:12:46.337Z,37.60
2023-03-01T23:15:12.690Z,37.52
2023-03-01T23:17:39.074Z,37.53
2023-03-01T23:20:05.422Z,37.61
2023-03-01T23:22:31.808Z,37.64
2023-03-01T23:24:58.137Z,37.66
2023-03-01T23:27:24.528Z,37.65
2023-03-01T23:29:50.866Z,37.63
2023-03-01T23:32:17.312Z,37.67
2023-03-01T23:34:43.617Z,37.72
2023-03-01T23:37:10.014Z,37.69
2023-03-01T23:39:36.353Z,37.75
2023-03-01T23:42:03.724Z,37.75
2023-03-01T23:44:29.111Z,37.75
2023-03-01T23:46:55.508Z,37.77
2023-03-01T23:49:21.881Z,37.81
2023-03-01T23:51:48.292Z,37.82
2023-03-01T23:54:14.647Z,37.83
2023-03-01T23:56:41.037Z,37.88
2023-03-01T23:59:07.387Z,37.90
